Time;durP1;ratioP1;P1;durP2;ratioP2;P2;SDS_P1;SDS_P2;PMS_P1;PMS_P2;Temp;Humidity;BMP_temperature;BMP_pressure;BME280_temperature;BME280_humidity;BME280_pressure;Samples;Min_cycle;Max_cycle;Signal;HPM_P1;HPM_P2
2023/07/17 00:01:34;;;;;;;8.48;2.42;;;14.10;1.00;;;;;;5095357;28;20126;-26
2023/07/17 00:03:59;;;;;;;14.52;2.15;;;14.10;1.00;;;;;;5078156;28;20036;-26
2023/07/17 00:06:25;;;;;;;15.95;2.92;;;14.10;1.00;;;;;;5095252;28;20040;-26
2023/07/17 00:08:51;;;;;;;9.50;2.53;;;14.20;1.00;;;;;;5095238;28;20178;-25
2023/07/17 00:11:16;;;;;;;16.65;4.22;;;14.20;1.00;;;;;;5095178;28;20398;-25
2023/07/17 00:13:42;;;;;;;15.00;3.22;;;14.40;99.70;;;;;;5095131;28;20498;-26
2023/07/17 00:16:08;;;;;;;8.95;2.28;;;14.40;57.00;;;;;;5095165;28;20059;-25
2023/07/17 00:18:34;;;;;;;11.52;2.40;;;14.40;43.00;;;;;;5095617;28;20385;-26
2023/07/17 00:21:04;;;;;;;14.90;2.60;;;14.50;42.70;;;;;;5095018;28;20113;-25
2023/07/17 00:23:29;;;;;;;13.98;2.58;;;14.50;76.60;;;;;;5095431;28;20393;-26
2023/07/17 00:25:55;;;;;;;6.32;2.05;;;14.50;31.70;;;;;;5094884;28;20048;-25
2023/07/17 00:28:21;;;;;;;10.13;2.63;;;14.60;34.50;;;;;;5094833;28;20048;-25
2023/07/17 00:30:47;;;;;;;17.02;2.40;;;14.60;2.20;;;;;;5093641;28;20040;-26
2023/07/17 00:33:13;;;;;;;10.65;2.88;;;14.60;1.00;;;;;;5094779;28;20052;-25
2023/07/17 00:35:38;;;;;;;13.48;2.58;;;14.60;26.20;;;;;;5095372;28;20105;-26
2023/07/17 00:38:04;;;;;;;11.82;3.10;;;14.60;17.20;;;;;;5094653;28;20047;-26
2023/07/17 00:40:30;;;;;;;12.98;3.22;;;14.60;41.80;;;;;;5094129;28;20048;-26
2023/07/17 00:43:00;;;;;;;9.27;2.13;;;14.60;88.70;;;;;;5093644;28;20040;-26
2023/07/17 00:45:33;;;;;;;12.10;2.45;;;14.60;99.90;;;;;;5094547;28;20046;-26
2023/07/17 00:47:59;;;;;;;10.65;2.70;;;14.70;99.90;;;;;;5094692;28;20394;-25
2023/07/17 00:50:27;;;;;;;10.52;3.85;;;14.70;99.90;;;;;;5093906;28;20052;-25
2023/07/17 00:52:53;;;;;;;14.98;2.95;;;14.70;99.90;;;;;;5095250;28;20052;-26
2023/07/17 00:55:20;;;;;;;10.95;3.17;;;14.70;99.90;;;;;;5094927;28;20036;-26
2023/07/17 00:57:50;;;;;;;16.05;3.13;;;14.70;99.90;;;;;;5094324;28;20040;-25
2023/07/17 01:00:18;;;;;;;14.27;3.28;;;14.60;99.90;;;;;;5094037;28;20371;-26
2023/07/17 01:02:44;;;;;;;9.02;2.25;;;14.70;99.90;;;;;;5093641;28;20087;-26
2023/07/17 01:05:10;;;;;;;9.93;3.20;;;14.70;99.90;;;;;;5092729;28;20516;-25
2023/07/17 01:07:37;;;;;;;13.90;2.53;;;14.80;99.90;;;;;;5094452;28;20044;-26
2023/07/17 01:10:05;;;;;;;9.43;2.10;;;15.00;99.90;;;;;;5093156;28;20101;-26
2023/07/17 01:12:35;;;;;;;10.55;2.65;;;15.10;99.90;;;;;;5094093;28;20052;-25
2023/07/17 01:15:02;;;;;;;9.30;1.83;;;15.10;99.90;;;;;;5094672;28;20127;-25
2023/07/17 01:17:28;;;;;;;11.23;2.67;;;15.20;99.90;;;;;;5094086;28;20105;-25
2023/07/17 01:19:54;;;;;;;13.43;2.90;;;15.20;99.90;;;;;;5094568;28;20048;-25
2023/07/17 01:22:26;;;;;;;16.95;2.65;;;15.20;99.90;;;;;;5094511;28;20044;-25
2023/07/17 01:24:52;;;;;;;11.35;2.40;;;15.30;99.90;;;;;;5093538;28;20128;-25
2023/07/17 01:27:18;;;;;;;10.35;2.72;;;15.30;99.90;;;;;;5093939;28;20136;-25
2023/07/17 01:29:44;;;;;;;11.60;3.00;;;15.20;99.90;;;;;;5093884;28;20126;-26
2023/07/17 01:32:10;;;;;;;11.05;2.42;;;15.10;99.90;;;;;;5093185;28;20458;-25
2023/07/17 01:34:36;;;;;;;9.32;2.42;;;15.00;99.90;;;;;;5094935;28;20335;-26
2023/07/17 01:37:02;;;;;;;14.15;2.35;;;15.00;99.90;;;;;;5094556;28;20044;-25
2023/07/17 01:39:28;;;;;;;7.35;2.08;;;14.90;99.90;;;;;;5093812;28;20435;-25
2023/07/17 01:41:54;;;;;;;5.97;2.08;;;14.80;99.90;;;;;;5093743;28;20182;-25
2023/07/17 01:44:19;;;;;;;7.22;2.13;;;14.80;99.90;;;;;;5093680;28;20048;-25
2023/07/17 01:46:45;;;;;;;6.57;2.30;;;14.70;99.90;;;;;;5093744;28;20123;-26
2023/07/17 01:49:11;;;;;;;12.00;2.80;;;14.70;99.90;;;;;;5093627;28;20611;-25
2023/07/17 01:51:37;;;;;;;9.13;1.92;;;14.70;99.90;;;;;;5077009;28;20056;-26
2023/07/17 01:54:02;;;;;;;7.28;1.60;;;14.70;99.90;;;;;;5098663;28;20501;-25
2023/07/17 01:56:28;;;;;;;6.47;2.45;;;14.60;99.90;;;;;;5097839;28;20040;-25
2023/07/17 01:58:54;;;;;;;7.85;2.45;;;14.60;99.90;;;;;;5079867;28;20040;-25
2023/07/17 02:01:20;;;;;;;7.07;2.10;;;14.50;99.90;;;;;;5096496;28;20147;-25
2023/07/17 02:03:45;;;;;;;10.95;2.63;;;14.50;99.90;;;;;;5097464;28;20055;-25
2023/07/17 02:06:11;;;;;;;7.47;2.28;;;14.50;1.00;;;;;;5097575;28;20112;-25
2023/07/17 02:08:37;;;;;;;7.70;2.78;;;14.40;1.00;;;;;;5097592;28;20390;-25
2023/07/17 02:11:03;;;;;;;12.10;3.00;;;14.30;1.00;;;;;;5096340;28;20478;-25
2023/07/17 02:13:29;;;;;;;13.90;2.63;;;14.30;1.00;;;;;;5097495;28;20119;-25
2023/07/17 02:15:56;;;;;;;9.00;2.88;;;14.30;1.00;;;;;;5097676;28;20454;-25
2023/07/17 02:18:22;;;;;;;9.90;2.50;;;14.30;1.00;;;;;;5097226;28;20420;-26
2023/07/17 02:20:49;;;;;;;12.55;3.05;;;14.40;1.00;;;;;;5097387;28;20401;-25
2023/07/17 02:23:15;;;;;;;8.18;3.03;;;14.40;1.00;;;;;;5097152;28;20127;-25
2023/07/17 02:25:42;;;;;;;9.23;2.35;;;14.40;1.00;;;;;;5079105;28;20127;-25
2023/07/17 02:28:08;;;;;;;11.05;2.60;;;14.40;10.40;;;;;;5097543;28;20052;-25
2023/07/17 02:30:34;;;;;;;10.90;2.58;;;14.40;58.70;;;;;;5096055;28;20062;-25
2023/07/17 02:32:59;;;;;;;12.15;2.92;;;14.40;1.00;;;;;;5078910;28;20387;-25
2023/07/17 02:35:25;;;;;;;7.97;2.50;;;14.40;99.90;;;;;;5095842;28;20040;-25
2023/07/17 02:37:51;;;;;;;9.23;3.22;;;14.40;99.90;;;;;;5097001;28;20618;-25
2023/07/17 02:40:17;;;;;;;7.95;3.03;;;14.30;99.90;;;;;;5095807;28;20375;-26
2023/07/17 02:42:43;;;;;;;8.40;3.05;;;14.30;99.90;;;;;;5097026;28;20139;-24
2023/07/17 02:45:09;;;;;;;10.40;3.10;;;14.20;99.90;;;;;;5096787;28;20123;-24
2023/07/17 02:47:35;;;;;;;8.55;2.53;;;14.20;99.90;;;;;;5096863;28;20036;-26
2023/07/17 02:50:05;;;;;;;9.68;2.78;;;14.10;99.90;;;;;;5096529;28;20060;-25
2023/07/17 02:52:34;;;;;;;8.32;3.13;;;14.10;99.90;;;;;;5096789;28;20051;-25
2023/07/17 02:55:02;;;;;;;13.55;3.83;;;14.10;99.90;;;;;;5096679;28;20044;-25
2023/07/17 02:57:27;;;;;;;13.45;3.20;;;14.10;99.90;;;;;;5096648;28;20048;-25
2023/07/17 02:59:54;;;;;;;9.77;3.70;;;14.00;99.90;;;;;;5095604;28;20040;-24
2023/07/17 03:02:20;;;;;;;13.93;2.70;;;14.00;99.90;;;;;;5095281;28;20075;-24
2023/07/17 03:04:46;;;;;;;9.13;2.63;;;14.00;99.90;;;;;;5096467;28;20520;-24
2023/07/17 03:07:11;;;;;;;8.70;2.47;;;14.00;99.90;;;;;;5096483;28;20070;-24
2023/07/17 03:09:37;;;;;;;7.80;2.63;;;14.00;99.90;;;;;;5095456;28;20051;-24
2023/07/17 03:12:03;;;;;;;8.07;3.17;;;13.90;99.90;;;;;;5095075;28;20044;-25
2023/07/17 03:14:29;;;;;;;10.93;2.50;;;13.90;99.90;;;;;;5078361;28;20047;-24
2023/07/17 03:16:54;;;;;;;9.50;3.33;;;13.90;99.90;;;;;;5096272;28;20044;-25
2023/07/17 03:19:20;;;;;;;9.25;3.10;;;13.80;99.90;;;;;;5095233;28;20128;-24
2023/07/17 03:21:46;;;;;;;9.80;2.60;;;13.80;99.90;;;;;;5095284;28;20044;-24
2023/07/17 03:24:11;;;;;;;12.63;3.60;;;13.80;99.90;;;;;;5096288;28;20198;-24
2023/07/17 03:26:37;;;;;;;15.77;2.95;;;13.70;99.90;;;;;;5095445;28;20040;-24
2023/07/17 03:29:04;;;;;;;9.52;3.45;;;13.70;99.90;;;;;;5096314;28;20051;-24
2023/07/17 03:31:30;;;;;;;8.13;2.92;;;13.70;99.90;;;;;;5096061;28;20055;-25
2023/07/17 03:33:55;;;;;;;9.98;3.28;;;13.60;99.90;;;;;;5096213;28;20114;-25
2023/07/17 03:36:22;;;;;;;10.98;3.00;;;13.50;99.90;;;;;;5096037;28;20105;-24
2023/07/17 03:38:47;;;;;;;8.68;3.30;;;13.50;99.90;;;;;;5095815;28;20130;-24
2023/07/17 03:41:13;;;;;;;14.45;3.35;;;13.50;99.90;;;;;;5095773;28;20084;-25
2023/07/17 03:43:39;;;;;;;8.80;3.08;;;13.50;99.90;;;;;;5095688;28;20052;-24
2023/07/17 03:46:04;;;;;;;9.32;3.25;;;13.50;99.90;;;;;;5094972;28;20043;-24
2023/07/17 03:48:30;;;;;;;12.15;3.35;;;13.40;99.90;;;;;;5095939;28;20143;-24
2023/07/17 03:50:56;;;;;;;8.18;3.53;;;13.50;99.90;;;;;;5095962;28;20058;-24
2023/07/17 03:53:22;;;;;;;9.45;3.15;;;13.40;99.90;;;;;;5096397;28;20131;-24
2023/07/17 03:55:47;;;;;;;10.23;3.40;;;13.40;99.90;;;;;;5094321;28;20474;-24
2023/07/17 03:58:13;;;;;;;9.32;3.20;;;13.40;99.90;;;;;;5096010;28;20036;-24
2023/07/17 04:00:39;;;;;;;13.82;4.07;;;13.40;99.90;;;;;;5094256;28;20048;-24
2023/07/17 04:03:04;;;;;;;14.85;4.25;;;13.50;99.90;;;;;;5095364;28;20181;-24
2023/07/17 04:05:30;;;;;;;12.75;3.97;;;13.50;99.90;;;;;;5094609;28;20070;-24
2023/07/17 04:07:57;;;;;;;13.75;4.50;;;13.50;99.90;;;;;;5094001;28;20051;-24
2023/07/17 04:10:23;;;;;;;19.73;5.00;;;13.50;99.90;;;;;;5094313;28;20420;-24
2023/07/17 04:12:49;;;;;;;10.20;4.07;;;13.50;99.90;;;;;;5095245;28;20051;-24
2023/07/17 04:15:14;;;;;;;13.35;3.80;;;13.50;99.90;;;;;;5094225;28;20485;-24
2023/07/17 04:17:40;;;;;;;11.52;4.45;;;13.60;99.90;;;;;;5095116;28;20090;-24
2023/07/17 04:20:10;;;;;;;15.85;4.57;;;13.60;99.90;;;;;;5077167;28;20059;-24
2023/07/17 04:22:36;;;;;;;10.40;4.07;;;13.60;99.90;;;;;;5095549;28;20055;-24
2023/07/17 04:25:03;;;;;;;12.82;4.15;;;13.70;99.90;;;;;;5094882;28;20044;-24
2023/07/17 04:27:30;;;;;;;15.43;3.70;;;13.70;99.90;;;;;;5094907;28;20101;-24
2023/07/17 04:29:56;;;;;;;11.77;3.83;;;13.70;99.90;;;;;;5095157;28;20044;-24
2023/07/17 04:32:22;;;;;;;14.90;3.80;;;13.70;99.90;;;;;;5094810;28;20473;-24
2023/07/17 04:34:48;;;;;;;13.32;4.45;;;13.80;99.90;;;;;;5095065;28;20101;-24
2023/07/17 04:37:14;;;;;;;7.95;2.83;;;13.80;99.90;;;;;;5093409;28;20036;-24
2023/07/17 04:39:40;;;;;;;11.80;3.33;;;13.90;99.90;;;;;;5095508;28;20047;-24
2023/07/17 04:42:05;;;;;;;12.45;3.45;;;13.90;99.90;;;;;;5094666;28;20607;-24
2023/07/17 04:44:31;;;;;;;12.57;3.88;;;14.00;99.90;;;;;;5094092;28;20052;-24
2023/07/17 04:46:57;;;;;;;15.40;3.65;;;14.10;99.90;;;;;;5094541;28;20043;-24
2023/07/17 04:49:23;;;;;;;11.63;3.83;;;14.10;99.90;;;;;;5094519;28;20064;-24
2023/07/17 04:51:49;;;;;;;14.95;3.60;;;14.10;99.90;;;;;;5093833;28;20055;-24
2023/07/17 04:54:14;;;;;;;10.60;3.22;;;14.20;99.90;;;;;;5094435;28;20131;-24
2023/07/17 04:56:41;;;;;;;13.90;3.97;;;14.30;99.90;;;;;;5076511;28;20067;-24
2023/07/17 04:59:06;;;;;;;11.40;2.95;;;14.30;99.90;;;;;;5094343;28;20058;-24
2023/07/17 05:01:32;;;;;;;12.18;3.58;;;14.40;99.90;;;;;;5094334;28;20468;-25
2023/07/17 05:03:58;;;;;;;11.23;3.75;;;14.50;99.90;;;;;;5094191;28;20044;-24
2023/07/17 05:06:23;;;;;;;11.07;3.53;;;14.60;99.90;;;;;;5094120;28;20448;-24
2023/07/17 05:08:49;;;;;;;17.65;3.90;;;14.70;99.90;;;;;;5093991;28;20051;-25
2023/07/17 05:11:15;;;;;;;9.27;3.08;;;14.90;99.90;;;;;;5094165;28;20056;-24
2023/07/17 05:13:41;;;;;;;13.70;3.85;;;15.00;99.90;;;;;;5094125;28;20052;-25
2023/07/17 05:16:06;;;;;;;11.32;2.88;;;15.00;99.90;;;;;;5094055;28;20493;-24
2023/07/17 05:18:32;;;;;;;7.47;2.72;;;15.10;99.90;;;;;;5094030;28;20044;-24
2023/07/17 05:20:58;;;;;;;13.45;3.67;;;15.20;99.90;;;;;;5094299;28;20044;-24
2023/07/17 05:23:26;;;;;;;11.68;3.42;;;15.30;99.90;;;;;;5093672;28;20398;-25
2023/07/17 05:25:54;;;;;;;14.85;3.90;;;15.70;99.90;;;;;;5093940;28;20040;-24
2023/07/17 05:28:20;;;;;;;12.73;3.20;;;16.10;14.90;;;;;;5093809;28;20173;-24
2023/07/17 05:30:49;;;;;;;15.15;3.38;;;16.50;1.00;;;;;;5093839;28;20130;-24
2023/07/17 05:33:15;;;;;;;14.45;4.45;;;16.80;99.90;;;;;;5093916;28;20040;-24
2023/07/17 05:35:41;;;;;;;13.20;3.85;;;17.10;1.00;;;;;;5092816;28;20486;-24
2023/07/17 05:38:06;;;;;;;15.73;4.45;;;17.30;1.00;;;;;;5093780;28;20059;-25
2023/07/17 05:40:35;;;;;;;13.88;2.80;;;17.50;1.00;;;;;;5093781;28;20050;-24
2023/07/17 05:43:00;;;;;;;12.25;3.85;;;17.80;99.90;;;;;;5093466;28;20545;-25
2023/07/17 05:45:26;;;;;;;17.50;4.18;;;18.10;99.90;;;;;;5093649;28;20132;-25
2023/07/17 05:47:52;;;;;;;12.07;2.92;;;18.30;1.00;;;;;;5093702;28;20037;-25
2023/07/17 05:50:19;;;;;;;14.30;3.78;;;18.50;99.90;;;;;;5091934;28;20509;-25
2023/07/17 05:52:44;;;;;;;12.70;3.88;;;18.50;99.90;;;;;;5093648;28;20056;-25
2023/07/17 05:55:11;;;;;;;14.60;3.67;;;18.60;1.00;;;;;;5093687;28;20093;-25
2023/07/17 05:57:36;;;;;;;12.73;3.05;;;18.50;97.20;;;;;;5093611;28;20109;-24
2023/07/17 06:00:03;;;;;;;13.00;4.32;;;18.40;1.00;;;;;;5093653;28;20040;-24
2023/07/17 06:02:29;;;;;;;19.58;4.40;;;18.40;8.50;;;;;;5093340;28;20486;-25
2023/07/17 06:04:58;;;;;;;12.18;4.75;;;18.20;99.90;;;;;;5093544;28;20033;-25
2023/07/17 06:07:24;;;;;;;12.90;3.70;;;18.10;99.90;;;;;;5059215;28;20405;-25
2023/07/17 06:09:49;;;;;;;14.45;4.28;;;17.70;1.00;;;;;;5093544;28;20043;-23
2023/07/17 06:12:15;;;;;;;16.00;5.13;;;17.30;99.90;;;;;;5094364;28;20040;-23
2023/07/17 06:14:41;;;;;;;9.82;4.38;;;16.70;1.00;;;;;;5094360;28;20048;-23
2023/07/17 06:17:07;;;;;;;11.20;3.80;;;16.20;99.90;;;;;;5093492;28;20481;-23
2023/07/17 06:19:33;;;;;;;15.88;4.70;;;16.00;1.00;;;;;;5092248;28;20044;-23
2023/07/17 06:21:58;;;;;;;17.38;4.97;;;15.90;1.00;;;;;;5093682;28;20048;-23
2023/07/17 06:24:24;;;;;;;17.17;4.60;;;15.90;1.00;;;;;;5092113;28;20546;-23
2023/07/17 06:26:50;;;;;;;15.32;4.55;;;16.00;1.00;;;;;;5093970;28;20083;-23
2023/07/17 06:29:15;;;;;;;14.27;5.18;;;16.20;20.00;;;;;;5093363;28;20056;-23
2023/07/17 06:31:41;;;;;;;17.08;4.45;;;16.80;29.40;;;;;;5093359;28;20101;-24
2023/07/17 06:34:07;;;;;;;16.90;4.35;;;17.50;99.90;;;;;;5075501;28;20509;-23
2023/07/17 06:36:32;;;;;;;15.95;4.60;;;18.50;1.00;;;;;;5093210;28;20044;-23
2023/07/17 06:38:58;;;;;;;13.85;4.15;;;19.00;1.00;;;;;;5096276;28;20048;-24
2023/07/17 06:41:24;;;;;;;17.17;4.35;;;18.70;99.90;;;;;;5096377;28;20128;-24
2023/07/17 06:43:49;;;;;;;15.70;5.28;;;18.40;1.00;;;;;;5096705;28;20055;-24
2023/07/17 06:46:17;;;;;;;17.00;4.30;;;18.30;1.00;;;;;;5096262;28;20181;-24
2023/07/17 06:48:43;;;;;;;16.60;4.93;;;18.60;99.90;;;;;;5096583;28;20123;-24
2023/07/17 06:51:08;;;;;;;16.52;4.65;;;18.40;1.00;;;;;;5096851;28;20091;-24
2023/07/17 06:53:34;;;;;;;13.68;5.32;;;17.80;1.00;;;;;;5097308;28;20044;-24
2023/07/17 06:56:00;;;;;;;14.93;5.18;;;17.50;99.90;;;;;;5097283;28;20052;-24
2023/07/17 06:58:30;;;;;;;14.60;5.30;;;17.20;97.10;;;;;;5095749;28;20044;-23
2023/07/17 07:00:57;;;;;;;17.65;6.18;;;17.00;99.90;;;;;;5083742;28;20067;-24
2023/07/17 07:03:24;;;;;;;9.75;4.55;;;17.10;99.90;;;;;;5087315;28;20048;-24
2023/07/17 07:05:59;;;;;;;15.35;4.07;;;17.60;1.00;;;;;;5088423;28;20119;-24
2023/07/17 07:08:30;;;;;;;10.65;3.50;;;18.60;99.90;;;;;;5085680;28;20110;-24
2023/07/17 07:10:59;;;;;;;11.65;4.50;;;19.20;99.90;;;;;;5079805;28;20048;-26
2023/07/17 07:13:25;;;;;;;18.98;5.40;;;19.10;99.90;;;;;;5076099;28;20044;-25
2023/07/17 07:15:51;;;;;;;11.60;4.18;;;19.10;1.00;;;;;;5074908;28;20135;-25
2023/07/17 07:18:18;;;;;;;9.90;4.22;;;18.60;37.60;;;;;;5074676;28;20044;-24
2023/07/17 07:20:44;;;;;;;12.35;4.25;;;18.20;99.90;;;;;;5075660;28;20059;-25
2023/07/17 07:23:10;;;;;;;21.02;4.85;;;18.00;1.00;;;;;;5058416;28;20059;-25
2023/07/17 07:25:37;;;;;;;13.48;4.82;;;17.70;90.50;;;;;;5076415;28;20478;-25
2023/07/17 07:28:03;;;;;;;11.13;4.13;;;17.50;99.90;;;;;;5074587;28;20048;-25
2023/07/17 07:30:29;;;;;;;13.45;4.50;;;17.30;99.90;;;;;;5075490;28;20514;-24
2023/07/17 07:32:55;;;;;;;13.95;4.75;;;17.50;1.00;;;;;;5075738;28;20049;-25
2023/07/17 07:35:21;;;;;;;12.30;3.90;;;18.20;99.90;;;;;;5075698;28;20082;-25
2023/07/17 07:37:47;;;;;;;10.75;4.65;;;18.70;1.00;;;;;;5088952;28;20047;-25
2023/07/17 07:40:14;;;;;;;20.08;5.03;;;;;;;;;;5095852;28;20043;-23
2023/07/17 07:42:42;;;;;;;10.95;3.47;;;20.30;19.30;;;;;;5094810;28;20056;-25
2023/07/17 07:45:09;;;;;;;11.00;3.88;;;19.60;99.90;;;;;;5096236;28;20043;-25
2023/07/17 07:47:35;;;;;;;11.63;3.63;;;19.20;1.00;;;;;;5095704;28;20044;-25
2023/07/17 07:50:00;;;;;;;8.65;3.03;;;19.40;23.40;;;;;;5095735;28;20047;-24
2023/07/17 07:52:27;;;;;;;10.75;3.83;;;19.40;99.90;;;;;;5096412;28;20055;-24
2023/07/17 07:54:53;;;;;;;14.65;4.10;;;19.80;1.00;;;;;;5095545;28;20048;-24
2023/07/17 07:57:19;;;;;;;9.32;2.92;;;19.80;99.90;;;;;;5095554;28;20109;-25
2023/07/17 07:59:45;;;;;;;10.40;3.20;;;19.10;1.00;;;;;;5095451;28;20044;-25
2023/07/17 08:02:11;;;;;;;12.32;3.00;;;18.50;1.00;;;;;;5095420;28;20040;-25
2023/07/17 08:04:37;;;;;;;8.15;2.78;;;18.70;99.90;;;;;;5095317;28;20082;-25
2023/07/17 08:07:04;;;;;;;10.70;2.72;;;19.20;99.90;;;;;;5095336;28;20048;-25
2023/07/17 08:09:29;;;;;;;9.48;2.47;;;19.30;1.00;;;;;;5095298;28;20413;-25
2023/07/17 08:11:55;;;;;;;6.82;2.17;;;19.30;1.00;;;;;;5095718;28;20047;-25
2023/07/17 08:14:21;;;;;;;4.90;1.85;;;18.90;99.90;;;;;;5095160;28;20177;-24
2023/07/17 08:16:47;;;;;;;5.93;1.85;;;18.50;99.90;;;;;;5095111;28;20390;-24
2023/07/17 08:19:13;;;;;;;7.72;3.35;;;18.10;99.90;;;;;;5095011;28;20044;-24
2023/07/17 08:21:39;;;;;;;7.22;2.25;;;17.80;99.90;;;;;;5094355;28;20040;-24
2023/07/17 08:24:05;;;;;;;6.72;2.92;;;17.60;1.00;;;;;;5094985;28;20040;-24
2023/07/17 08:26:31;;;;;;;7.88;2.22;;;18.00;99.90;;;;;;5095223;28;20071;-24
2023/07/17 08:28:57;;;;;;;9.63;2.60;;;18.80;99.90;;;;;;5094902;28;20432;-25
2023/07/17 08:31:23;;;;;;;7.50;2.15;;;19.10;99.90;;;;;;5094837;28;20044;-24
2023/07/17 08:33:49;;;;;;;6.38;1.85;;;19.00;99.90;;;;;;5093851;28;20124;-24
2023/07/17 08:36:15;;;;;;;7.05;2.40;;;18.80;1.00;;;;;;5095246;28;20119;-25
2023/07/17 08:38:40;;;;;;;5.65;2.20;;;18.90;17.40;;;;;;5090449;28;20109;-24
2023/07/17 08:41:07;;;;;;;5.03;2.42;;;18.90;99.90;;;;;;5086646;28;20127;-25
2023/07/17 08:43:35;;;;;;;8.10;2.08;;;18.80;1.00;;;;;;5074345;28;20052;-26
2023/07/17 08:46:01;;;;;;;8.57;2.80;;;18.70;99.90;;;;;;5089663;28;20048;-26
2023/07/17 08:48:28;;;;;;;9.02;2.33;;;18.90;99.90;;;;;;5094551;28;20089;-26
2023/07/17 08:50:57;;;;;;;10.10;2.40;;;18.90;97.20;;;;;;5094026;28;20097;-25
2023/07/17 08:53:25;;;;;;;6.15;1.83;;;19.10;99.90;;;;;;5095012;28;20055;-26
2023/07/17 08:55:54;;;;;;;3.67;1.65;;;19.50;99.90;;;;;;5094959;28;20059;-25
2023/07/17 08:58:22;;;;;;;8.52;2.28;;;19.20;1.00;;;;;;5077882;28;20044;-24
2023/07/17 09:00:50;;;;;;;5.20;1.65;;;19.00;99.90;;;;;;5074445;28;20041;-25
2023/07/17 09:03:17;;;;;;;6.40;2.22;;;19.20;99.90;;;;;;5074323;28;20040;-25
2023/07/17 09:05:43;;;;;;;8.45;2.33;;;19.30;45.30;;;;;;5073932;28;20041;-25
2023/07/17 09:08:12;;;;;;;6.18;2.50;;;19.40;99.90;;;;;;5074598;28;20049;-25
2023/07/17 09:10:43;;;;;;;6.00;2.05;;;19.50;99.90;;;;;;5073937;28;20048;-24
2023/07/17 09:13:09;;;;;;;7.72;1.73;;;19.80;99.90;;;;;;5074811;28;20125;-25
2023/07/17 09:15:35;;;;;;;5.47;1.77;;;20.00;99.90;;;;;;5073900;28;20474;-25
2023/07/17 09:18:02;;;;;;;5.50;1.80;;;19.90;1.00;;;;;;5072892;28;20114;-26
2023/07/17 09:20:28;;;;;;;3.85;1.17;;;20.30;99.90;;;;;;5072587;28;20417;-25
2023/07/17 09:23:03;;;;;;;7.00;2.15;;;20.70;1.00;;;;;;5073768;28;20052;-25
2023/07/17 09:25:30;;;;;;;5.50;1.73;;;20.80;99.90;;;;;;5072603;28;20539;-25
2023/07/17 09:27:57;;;;;;;8.27;2.13;;;21.00;99.90;;;;;;5073682;28;20041;-25
2023/07/17 09:30:25;;;;;;;6.80;2.28;;;21.20;1.00;;;;;;5056028;28;20052;-26
2023/07/17 09:32:52;;;;;;;7.50;2.35;;;21.50;1.00;;;;;;5073716;28;20048;-25
2023/07/17 09:35:23;;;;;;;10.32;2.50;;;21.20;99.90;;;;;;5073919;28;20382;-25
2023/07/17 09:37:51;;;;;;;6.55;1.98;;;21.60;99.90;;;;;;5073586;28;20052;-26
2023/07/17 09:40:20;;;;;;;8.60;1.88;;;21.20;99.90;;;;;;5073616;28;20080;-25
2023/07/17 09:42:54;;;;;;;6.07;1.80;;;21.10;99.90;;;;;;5073848;28;20048;-25
2023/07/17 09:45:21;;;;;;;6.22;1.80;;;21.10;1.00;;;;;;5072418;28;20041;-26
2023/07/17 09:47:50;;;;;;;6.38;2.05;;;20.90;1.00;;;;;;5073822;28;20045;-25
2023/07/17 09:50:18;;;;;;;3.72;1.27;;;21.10;99.90;;;;;;5073769;28;20060;-26
2023/07/17 09:52:45;;;;;;;6.30;1.58;;;21.30;99.90;;;;;;5073820;28;20533;-26
2023/07/17 09:55:11;;;;;;;6.75;2.08;;;21.50;99.90;;;;;;5072188;28;20394;-26
2023/07/17 09:57:38;;;;;;;5.03;1.55;;;21.50;99.90;;;;;;5073466;28;20044;-25
2023/07/17 10:00:17;;;;;;;5.47;1.38;;;21.00;99.90;;;;;;5055455;28;20135;-25
2023/07/17 10:03:00;;;;;;;4.10;1.00;;;20.90;99.90;;;;;;5073701;28;20462;-25
2023/07/17 10:05:31;;;;;;;6.78;1.42;;;21.10;99.90;;;;;;5056771;28;20098;-26
2023/07/17 10:08:02;;;;;;;5.50;1.58;;;20.10;99.90;;;;;;5074182;28;20067;-25
2023/07/17 10:10:28;;;;;;;4.10;1.42;;;20.10;99.90;;;;;;5073931;28;20084;-25
2023/07/17 10:12:55;;;;;;;3.00;1.42;;;20.90;99.90;;;;;;5073683;28;20056;-27
2023/07/17 10:15:21;;;;;;;9.70;2.72;;;21.50;1.00;;;;;;5076228;28;20049;-26
2023/07/17 10:17:58;;;;;;;7.75;2.38;;;21.20;1.00;;;;;;5077213;28;20123;-25
2023/07/17 10:20:25;;;;;;;7.95;2.47;;;20.00;99.90;;;;;;5076515;28;20040;-25
2023/07/17 10:22:51;;;;;;;8.15;2.60;;;20.10;29.70;;;;;;5076136;28;20106;-25
2023/07/17 10:25:19;;;;;;;10.13;2.65;;;20.30;1.00;;;;;;5076968;28;20429;-25
2023/07/17 10:28:02;;;;;;;6.30;1.52;;;20.10;1.00;;;;;;5076025;28;20051;-26
2023/07/17 10:30:35;;;;;;;3.60;1.48;;;19.80;40.90;;;;;;5077974;28;20134;-26
2023/07/17 10:33:07;;;;;;;2.83;0.93;;;19.50;1.00;;;;;;5075454;28;20068;-26
2023/07/17 10:36:00;;;;;;;4.88;2.15;;;19.40;28.30;;;;;;5075801;28;20501;-26
2023/07/17 10:38:28;;;;;;;4.25;1.73;;;19.80;99.20;;;;;;5076752;28;20059;-25
2023/07/17 10:41:22;;;;;;;6.22;2.30;;;20.40;87.10;;;;;;5076711;28;20053;-26
2023/07/17 10:43:56;;;;;;;5.63;1.85;;;20.80;99.90;;;;;;5077193;28;20123;-26
2023/07/17 10:46:32;;;;;;;6.82;2.05;;;20.50;99.90;;;;;;5076592;28;20410;-26
2023/07/17 10:49:12;;;;;;;6.80;1.73;;;20.00;99.90;;;;;;5076324;28;20048;-26
2023/07/17 10:51:53;;;;;;;6.78;2.20;;;20.10;43.10;;;;;;5076576;28;20139;-26
2023/07/17 10:54:19;;;;;;;8.43;2.22;;;20.50;1.00;;;;;;5075413;28;20040;-26
2023/07/17 10:56:48;;;;;;;9.25;2.65;;;20.60;1.00;;;;;;5075451;28;20489;-26
2023/07/17 10:59:16;;;;;;;4.85;1.52;;;20.70;5.40;;;;;;5076396;28;20045;-26
2023/07/17 11:01:44;;;;;;;6.80;2.28;;;20.60;30.50;;;;;;5076619;28;20059;-25
2023/07/17 11:04:09;;;;;;;4.95;1.92;;;20.30;99.90;;;;;;5075904;28;20429;-26
2023/07/17 11:06:35;;;;;;;3.67;1.85;;;20.30;1.00;;;;;;5075907;28;20044;-26
2023/07/17 11:09:02;;;;;;;4.97;1.88;;;20.60;99.90;;;;;;5076202;28;20050;-25
2023/07/17 11:11:29;;;;;;;5.88;1.50;;;20.90;1.00;;;;;;5076222;28;20048;-25
2023/07/17 11:13:58;;;;;;;8.98;1.70;;;21.10;1.00;;;;;;5076689;28;20052;-26
2023/07/17 11:16:24;;;;;;;7.20;2.80;;;20.90;99.90;;;;;;5076079;28;20048;-25
2023/07/17 11:18:55;;;;;;;6.88;2.45;;;20.80;99.90;;;;;;5076031;28;20053;-25
2023/07/17 11:21:25;;;;;;;6.20;2.00;;;20.30;1.00;;;;;;5076078;28;20040;-25
2023/07/17 11:23:56;;;;;;;7.15;2.15;;;20.10;1.00;;;;;;5075533;28;20048;-25
2023/07/17 11:26:26;;;;;;;6.15;1.58;;;20.00;1.00;;;;;;5076460;28;20051;-26
2023/07/17 11:28:54;;;;;;;6.22;2.35;;;19.90;1.00;;;;;;5076481;28;20098;-26
2023/07/17 11:31:29;;;;;;;5.10;2.05;;;19.60;24.10;;;;;;5076347;28;20359;-26
2023/07/17 11:33:57;;;;;;;4.05;1.52;;;19.70;99.90;;;;;;5075783;28;20052;-26
2023/07/17 11:36:23;;;;;;;8.68;2.33;;;20.10;99.90;;;;;;5076226;28;20055;-26
2023/07/17 11:38:49;;;;;;;5.05;2.03;;;20.10;1.00;;;;;;5076248;28;20052;-26
2023/07/17 11:41:15;;;;;;;3.65;1.70;;;20.00;1.00;;;;;;5075672;28;20048;-26
2023/07/17 11:43:40;;;;;;;6.15;1.63;;;19.80;1.00;;;;;;5075643;28;20481;-26
2023/07/17 11:46:08;;;;;;;7.45;1.95;;;19.80;43.50;;;;;;5076068;28;20378;-27
2023/07/17 11:48:36;;;;;;;8.32;1.92;;;20.50;99.90;;;;;;5075318;28;20040;-26
2023/07/17 11:51:04;;;;;;;4.53;1.85;;;21.80;1.00;;;;;;5075169;28;20091;-25
2023/07/17 11:53:30;;;;;;;7.00;1.67;;;22.40;99.90;;;;;;5075988;28;20098;-26
2023/07/17 11:55:55;;;;;;;4.97;1.40;;;22.80;99.90;;;;;;5074146;28;20045;-26
2023/07/17 11:58:26;;;;;;;4.80;1.77;;;22.50;5.20;;;;;;5077157;28;20056;-27
2023/07/17 12:00:54;;;;;;;5.60;1.75;;;21.60;41.60;;;;;;5094852;28;20060;-26
2023/07/17 12:03:20;;;;;;;10.75;2.95;;;20.40;99.90;;;;;;5094258;28;20047;-21
2023/07/17 12:05:45;;;;;;;8.13;1.98;;;18.90;60.20;;;;;;5095337;28;20040;-21
2023/07/17 12:08:12;;;;;;;7.70;2.42;;;18.00;33.60;;;;;;5095330;28;20070;-21
2023/07/17 12:10:40;;;;;;;4.63;1.95;;;17.90;99.90;;;;;;5095252;28;20485;-21
2023/07/17 12:13:06;;;;;;;5.40;2.53;;;18.50;99.90;;;;;;5091846;28;20466;-21
2023/07/17 12:15:35;;;;;;;4.90;2.05;;;19.30;99.90;;;;;;5094605;28;20048;-21
2023/07/17 12:18:01;;;;;;;10.55;1.92;;;19.80;1.00;;;;;;5094165;28;20048;-21
2023/07/17 12:20:28;;;;;;;8.65;2.08;;;20.20;96.00;;;;;;5095110;28;20134;-22
2023/07/17 12:22:55;;;;;;;6.05;1.63;;;20.70;1.00;;;;;;5095057;28;20048;-22
2023/07/17 12:25:22;;;;;;;4.38;1.75;;;20.90;1.00;;;;;;5094939;28;20102;-22
2023/07/17 12:27:48;;;;;;;6.57;2.28;;;20.70;1.00;;;;;;5091024;28;20059;-22
2023/07/17 12:30:14;;;;;;;3.80;1.70;;;20.30;99.90;;;;;;5077024;28;20052;-22
2023/07/17 12:32:41;;;;;;;5.38;2.20;;;20.10;1.00;;;;;;5091072;28;20130;-22
2023/07/17 12:35:08;;;;;;;4.72;1.83;;;20.50;99.90;;;;;;5073796;28;20040;-23
2023/07/17 12:37:34;;;;;;;6.80;2.28;;;21.00;1.00;;;;;;5074420;28;20044;-22
2023/07/17 12:40:00;;;;;;;4.15;1.63;;;20.90;99.90;;;;;;5074529;28;20052;-22
2023/07/17 12:42:26;;;;;;;5.00;1.70;;;20.70;74.60;;;;;;5074446;28;20040;-23
2023/07/17 12:44:55;;;;;;;4.40;1.90;;;20.70;99.90;;;;;;5073986;28;20045;-23